createdAt,value
2023-05-21T00:04:08.070Z,17.42
2023-05-21T00:09:10.797Z,17.38
2023-05-21T00:14:13.911Z,18.05
2023-05-21T00:19:16.411Z,17.27
2023-05-21T00:24:18.317Z,17.75
2023-05-21T00:29:20.199Z,18.33
2023-05-21T00:34:22.347Z,17.17
2023-05-21T00:39:24.727Z,16.92
2023-05-21T00:44:27.260Z,17.77
2023-05-21T00:49:30.761Z,17.02
2023-05-21T00:54:33.008Z,17.00
2023-05-21T00:59:34.922Z,17.52
2023-05-21T01:04:37.209Z,17.55
2023-05-21T01:09:43.665Z,17.25
2023-05-21T01:14:45.950Z,17.33
2023-05-21T01:19:48.260Z,17.55
2023-05-21T01:24:50.568Z,17.83
2023-05-21T01:29:52.487Z,17.85
2023-05-21T01:35:03.364Z,17.45
2023-05-21T01:40:21.125Z,17.08
2023-05-21T01:45:25.952Z,16.88
2023-05-21T01:50:28.831Z,16.88
2023-05-21T01:55:31.388Z,17.65
2023-05-21T02:00:34.737Z,17.83
2023-05-21T02:05:36.745Z,18.13
2023-05-21T02:10:38.940Z,16.98
2023-05-21T02:15:40.824Z,16.30
2023-05-21T02:20:43.649Z,17.65
2023-05-21T02:25:45.709Z,16.45
2023-05-21T02:30:47.648Z,17.38
2023-05-21T02:35:49.629Z,17.23
2023-05-21T02:40:51.966Z,17.55
2023-05-21T02:45:54.317Z,17.88
2023-05-21T02:50:56.522Z,17.77
2023-05-21T02:55:58.449Z,17.45
2023-05-21T03:01:00.539Z,17.85
2023-05-21T03:06:03.318Z,17.13
2023-05-21T03:11:05.293Z,17.42
2023-05-21T03:16:07.337Z,16.95
2023-05-21T03:21:09.273Z,16.15
2023-05-21T03:26:11.660Z,16.92
2023-05-21T03:31:13.560Z,17.27
2023-05-21T03:36:33.981Z,15.82
2023-05-21T03:41:37.575Z,17.35
2023-05-21T03:46:51.523Z,16.58
2023-05-21T03:52:05.677Z,16.40
2023-05-21T03:57:07.820Z,17.92
2023-05-21T04:02:09.970Z,17.85
2023-05-21T04:07:14.789Z,17.08
2023-05-21T04:12:18.192Z,18.67
2023-05-21T04:17:21.153Z,18.25
2023-05-21T04:22:26.651Z,16.77
2023-05-21T04:27:28.866Z,18.52
2023-05-21T04:32:33.516Z,17.08
2023-05-21T04:37:36.391Z,16.95
2023-05-21T04:42:39.188Z,16.40
2023-05-21T04:47:43.710Z,15.93
2023-05-21T04:52:45.752Z,17.55
2023-05-21T04:57:47.633Z,16.95
2023-05-21T05:02:49.725Z,17.05
2023-05-21T05:07:51.803Z,15.93
2023-05-21T05:12:53.754Z,16.63
2023-05-21T05:17:56.760Z,15.57
2023-05-21T05:22:58.956Z,15.65
2023-05-21T05:28:00.967Z,15.98
2023-05-21T05:33:02.991Z,16.15
2023-05-21T05:38:05.980Z,14.63
2023-05-21T05:43:09.174Z,16.42
2023-05-21T05:48:12.145Z,14.27
2023-05-21T05:53:14.762Z,14.23
2023-05-21T05:58:17.010Z,15.68
2023-05-21T06:03:39.257Z,15.75
2023-05-21T06:08:46.659Z,13.70
2023-05-21T06:13:48.588Z,14.57
2023-05-21T06:18:52.389Z,14.65
2023-05-21T06:23:54.431Z,13.77
2023-05-21T06:28:56.704Z,14.13
2023-05-21T06:34:00.603Z,13.93
2023-05-21T06:39:03.502Z,14.48
2023-05-21T06:44:06.240Z,14.32
2023-05-21T06:49:26.698Z,14.25
2023-05-21T06:54:28.667Z,13.55
2023-05-21T06:59:30.728Z,14.75
2023-05-21T07:04:35.326Z,14.35
2023-05-21T07:09:37.301Z,14.23
2023-05-21T07:14:39.362Z,13.73
2023-05-21T07:19:41.667Z,14.40
2023-05-21T07:24:43.904Z,14.70
2023-05-21T07:29:46.591Z,15.32
2023-05-21T07:34:50.059Z,14.38
2023-05-21T07:39:52.920Z,15.23
2023-05-21T07:44:55.077Z,14.20
2023-05-21T07:50:01.618Z,14.35
2023-05-21T07:55:05.114Z,15.32
2023-05-21T08:00:11.181Z,15.07
2023-05-21T08:05:25.723Z,13.88
2023-05-21T08:10:27.753Z,13.48
2023-05-21T08:15:29.736Z,12.43
2023-05-21T08:20:35.780Z,13.82
2023-05-21T08:25:37.940Z,13.77
2023-05-21T08:30:40.494Z,12.63
2023-05-21T08:35:42.395Z,13.10
2023-05-21T08:40:59.074Z,12.45
2023-05-21T08:46:04.755Z,13.30
2023-05-21T08:51:10.420Z,12.82
2023-05-21T08:56:18.385Z,12.18
2023-05-21T09:01:28.716Z,11.55
2023-05-21T09:06:37.873Z,11.45
2023-05-21T09:11:42.458Z,11.30
2023-05-21T09:16:48.811Z,11.18
2023-05-21T09:21:55.206Z,10.82
2023-05-21T09:27:01.993Z,11.10
2023-05-21T09:32:08.093Z,11.68
2023-05-21T09:37:26.626Z,10.13
2023-05-21T09:42:30.142Z,11.63
2023-05-21T09:47:32.567Z,10.82
2023-05-21T09:52:36.861Z,10.77
2023-05-21T09:57:42.780Z,11.90
2023-05-21T10:02:49.037Z,10.75
2023-05-21T10:07:53.758Z,12.02
2023-05-21T10:13:04.383Z,10.25
2023-05-21T10:18:08.536Z,10.48
2023-05-21T10:23:10.823Z,10.23
2023-05-21T10:28:17.093Z,11.00
2023-05-21T10:33:20.275Z,10.43
2023-05-21T10:38:22.746Z,10.65
2023-05-21T10:43:30.925Z,9.98
2023-05-21T10:48:57.404Z,10.07
2023-05-21T10:54:35.217Z,10.70
2023-05-21T10:59:44.026Z,9.90
2023-05-21T11:04:49.483Z,10.20
2023-05-21T11:09:51.619Z,10.02
2023-05-21T11:14:58.142Z,8.65
2023-05-21T11:20:05.422Z,8.80
2023-05-21T11:25:08.343Z,9.75
2023-05-21T11:30:15.939Z,9.35
2023-05-21T11:35:17.933Z,7.70
2023-05-21T11:40:25.825Z,9.65
2023-05-21T11:45:32.753Z,9.43
2023-05-21T11:50:35.496Z,7.53
2023-05-21T11:55:43.730Z,7.80
2023-05-21T12:00:45.897Z,8.02
2023-05-21T12:05:49.033Z,7.90
2023-05-21T12:10:59.183Z,8.20
2023-05-21T12:16:05.968Z,8.40
2023-05-21T12:21:11.073Z,8.07
2023-05-21T12:26:14.380Z,8.98
2023-05-21T12:31:16.415Z,8.93
2023-05-21T12:36:34.428Z,9.45
2023-05-21T12:41:36.427Z,9.02
2023-05-21T12:46:38.544Z,9.23
2023-05-21T12:51:41.093Z,9.82
2023-05-21T12:56:46.504Z,8.65
2023-05-21T13:01:49.040Z,9.82
2023-05-21T13:06:51.744Z,9.35
2023-05-21T13:11:54.071Z,9.25
2023-05-21T13:16:57.762Z,9.70
2023-05-21T13:21:59.920Z,10.07
2023-05-21T13:27:02.430Z,10.45
2023-05-21T13:32:05.111Z,10.00
2023-05-21T13:37:07.955Z,9.52
2023-05-21T13:42:09.832Z,9.55
2023-05-21T13:47:12.543Z,9.18
2023-05-21T13:52:15.182Z,9.88
2023-05-21T13:57:17.085Z,9.40
2023-05-21T14:02:19.313Z,10.45
2023-05-21T14:07:22.314Z,9.68
2023-05-21T14:12:24.524Z,9.38
2023-05-21T14:17:26.515Z,8.38
2023-05-21T14:22:28.470Z,7.78
2023-05-21T14:27:30.504Z,6.63
2023-05-21T14:32:32.362Z,8.32
2023-05-21T14:37:34.288Z,8.63
2023-05-21T14:42:36.780Z,9.20
2023-05-21T14:47:38.678Z,8.57
2023-05-21T14:52:42.669Z,7.68
2023-05-21T14:57:45.142Z,5.93
2023-05-21T15:02:47.562Z,5.70
2023-05-21T15:07:49.758Z,5.70
2023-05-21T15:12:52.506Z,5.38
2023-05-21T15:17:54.425Z,6.32
2023-05-21T15:23:08.744Z,6.07
2023-05-21T15:28:17.639Z,6.93
2023-05-21T15:33:19.671Z,6.53
2023-05-21T15:38:25.206Z,6.70
2023-05-21T15:43:27.749Z,6.13
2023-05-21T15:48:30.058Z,5.20
2023-05-21T15:53:32.057Z,6.20
2023-05-21T15:58:34.373Z,5.13
2023-05-21T16:03:36.380Z,4.93
2023-05-21T16:08:38.413Z,5.32
2023-05-21T16:13:41.404Z,5.38
2023-05-21T16:18:43.657Z,4.80
2023-05-21T16:23:45.836Z,5.47
2023-05-21T16:28:48.361Z,5.40
2023-05-21T16:33:50.343Z,4.90
2023-05-21T16:38:52.878Z,5.32
2023-05-21T16:43:55.448Z,5.25
2023-05-21T16:48:57.325Z,5.82
2023-05-21T16:53:59.223Z,5.35
2023-05-21T16:59:01.219Z,5.05
2023-05-21T17:04:03.636Z,5.22
2023-05-21T17:09:06.412Z,4.63
2023-05-21T17:14:08.364Z,4.55
2023-05-21T17:19:10.644Z,4.72
2023-05-21T17:24:12.893Z,4.95
2023-05-21T17:29:14.791Z,4.80
2023-05-21T17:34:18.075Z,5.03
2023-05-21T17:39:20.292Z,4.97
2023-05-21T17:44:22.309Z,4.95
2023-05-21T17:49:24.205Z,4.45
2023-05-21T17:54:26.173Z,4.10
2023-05-21T17:59:28.069Z,4.45
2023-05-21T18:04:29.991Z,5.00
2023-05-21T18:09:32.140Z,5.65
2023-05-21T18:14:34.103Z,5.32
2023-05-21T18:19:36.576Z,5.07
2023-05-21T18:24:40.137Z,5.63
2023-05-21T18:29:42.366Z,5.18
2023-05-21T18:34:44.547Z,5.40
2023-05-21T18:39:46.752Z,5.50
2023-05-21T18:44:51.920Z,4.75
2023-05-21T18:49:54.341Z,5.40
2023-05-21T18:54:56.393Z,5.38
2023-05-21T19:00:00.175Z,5.25
2023-05-21T19:05:03.009Z,5.22
2023-05-21T19:10:05.612Z,5.25
2023-05-21T19:15:08.363Z,5.03
2023-05-21T19:20:10.997Z,5.45
2023-05-21T19:25:13.295Z,5.30
2023-05-21T19:30:15.732Z,5.00
2023-05-21T19:35:17.790Z,5.50
2023-05-21T19:40:22.996Z,5.43
2023-05-21T19:45:25.524Z,5.30
2023-05-21T19:50:28.869Z,5.00
2023-05-21T19:55:35.548Z,5.28
2023-05-21T20:00:37.780Z,6.15
2023-05-21T20:05:39.963Z,5.65
2023-05-21T20:10:42.756Z,5.55
2023-05-21T20:15:44.987Z,6.00
2023-05-21T20:20:47.528Z,5.90
2023-05-21T20:25:49.688Z,5.45
2023-05-21T20:30:54.030Z,5.00
2023-05-21T20:35:56.120Z,5.05
2023-05-21T20:40:58.470Z,5.35
2023-05-21T20:46:01.811Z,5.22
2023-05-21T20:51:04.802Z,5.55
2023-05-21T20:56:08.374Z,5.70
2023-05-21T21:01:10.812Z,5.50
2023-05-21T21:06:13.998Z,6.07
2023-05-21T21:11:16.442Z,5.28
2023-05-21T21:16:18.726Z,5.40
2023-05-21T21:21:20.615Z,5.50
2023-05-21T21:26:23.106Z,5.35
2023-05-21T21:31:25.152Z,5.30
2023-05-21T21:36:28.997Z,5.28
2023-05-21T21:41:30.957Z,5.80
2023-05-21T21:46:33.466Z,5.40
2023-05-21T21:51:35.504Z,6.18
2023-05-21T21:56:37.572Z,5.63
2023-05-21T22:01:39.659Z,6.15
2023-05-21T22:06:41.687Z,5.50
2023-05-21T22:11:43.676Z,6.25
2023-05-21T22:16:47.969Z,6.50
2023-05-21T22:21:50.268Z,6.20
2023-05-21T22:26:52.109Z,5.75
2023-05-21T22:31:54.023Z,5.90
2023-05-21T22:36:55.956Z,6.03
2023-05-21T22:41:57.910Z,5.78
2023-05-21T22:47:00.372Z,6.20
2023-05-21T22:52:05.356Z,5.93
2023-05-21T22:57:07.331Z,6.57
2023-05-21T23:02:09.474Z,6.88
2023-05-21T23:07:12.463Z,5.97
2023-05-21T23:12:14.465Z,6.93
2023-05-21T23:17:16.455Z,6.40
2023-05-21T23:22:19.481Z,6.70
2023-05-21T23:27:21.378Z,6.20
2023-05-21T23:32:23.812Z,6.15
2023-05-21T23:37:25.910Z,6.03
2023-05-21T23:42:27.890Z,5.65
2023-05-21T23:47:29.871Z,6.80
2023-05-21T23:52:31.866Z,6.95
2023-05-21T23:57:33.980Z,6.72
